CYVQ

Norman Wells Airport

Norman Wells, Northwest Territories, Canada
METAR CYVQ 232200Z 27004KT 230V290 6SM -SN FEW004 BKN052 OVC068 M08/M10 A2971 RMK ST1SC5AC3 ST TR SLP071
Observed Flight Rules
Feb-23 @ 22:00 UTC (36 minutes ago) Visual Flight Rules
Wind Visibility Clouds Conditions
270° at 4 knots 6 miles
  • Few at 400' AGL
  • Broken at 5,200' AGL
  • Overcast at 6,800' AGL
  • Light Snow
Temperatures Readings
Current -8°C / 18°F
Dewpoint -10°C / 14°F
Humidity 86%
Altimeter 29.71" Hg
Pressure 1007.1 hPa
Elevation 74
METAR CYVQ 232200Z 27004KT 230V290 6SM -SN FEW004 BKN052 OVC068 M08/M10 A2971 RMK ST1SC5AC3 ST TR SLP071
Observed Flight Rules
Feb-23 @ 22:00 UTC
(36 minutes ago)
VFR
Wind Visibility
270° at 4 knots 6 miles
Clouds
  • Few at 400' AGL
  • Broken at 5,200' AGL
  • Overcast at 6,800' AGL
Conditions
  • Light Snow
Temperature Dewpoint
-8°C / 18°F -10°C / 14°F
Humidity Altimeter Pressure
86% 29.71" Hg 1007.1 hPa